Lawrence, Mississippi
Current Conditions -  °F | °C
As of 11:58 PM on Tuesday 25 Nov 2014 (Local Time) from KMEI Reporting Station
Clear Clear  
Wind Chill: 36°   Ceiling: Unl
Heat Index: 36°   Visibility: 10mi
Dew Point: 29°   Wind: 0mph
Humidity: 76%   Direction: NA
Pressure: 30.18"   Gusts: NA
Location:  32.32°N, 89.23°W
Report Text: KMEI 260558Z AUTO 00000KT 10SM CLR 02/M02 A3018 RMK AO2 SLP219 T00221017 10089 20017 401440017 56009
Loading
Personal Weather Stations






























Interactive Weather Map New forecast layout! Learn more

10-Day Weather Forecast

Advertisements
Track Severe Weather on mobile